KTWF/TWF METAR and TAF weather

Enter ICAO airport designator
Station Type Date Time Source
KTWF METAR 2018/12/11 19:53 UTC NOAA

KTWF 111953Z 07006KT 10SM CLR 01/M04 A3024 RMK AO2 SLP249 T00111039


Station Type Date Time Source
KTWF Decoded METAR 2018/12/11 19:53 UTC NOAA

JOSLIN FLD-MAGIC VALLEY REGL, ID, United States (KTWF) 42-29N 114-29W 1266M
Dec 11, 2018 - 02:53 PM EST / 2018.12.11 1953 UTC
Wind: from the ENE (070 degrees) at 7 MPH (6 KT):0
Visibility: 10 mile(s):0
Sky conditions: clear
Temperature: 34.0 F (1.1 C)
Windchill: 28 F (-2 C):1
Dew Point: 25.0 F (-3.9 C)
Relative Humidity: 69%
Pressure (altimeter): 30.24 in. Hg (1024 hPa)
ob: KTWF 111953Z 07006KT 10SM CLR 01/M04 A3024 RMK AO2 SLP249 T00111039
cycle: 20

Station Type Date Time Source
KTWF TAF 2018/12/11 18:24 UTC NOAA

TAF KTWF 111721Z 1118/1218 16006KT P6SM BKN020
FM112000 16005KT P6SM SCT020
FM120400 16008KT P6SM BKN080
FM120900 21011KT 4SM -SN BR OVC025
FM121100 24015G24KT 4SM -SN BR OVC015
FM121600 25025G35KT P6SM BKN020


Example: see airport list